Time;durP1;ratioP1;P1;durP2;ratioP2;P2;SDS_P1;SDS_P2;PMS_P1;PMS_P2;Temp;Humidity;BMP_temperature;BMP_pressure;BME280_temperature;BME280_humidity;BME280_pressure;Samples;Min_cycle;Max_cycle;Signal;HPM_P1;HPM_P2
2021/06/04 00:00:28;;;;;;;1.30;1.30;;;24.60;55.40;;;;;;5050785;28;20048;-32
2021/06/04 00:02:54;;;;;;;1.00;1.00;;;24.60;55.40;;;;;;5051802;28;20040;-30
2021/06/04 00:05:23;;;;;;;1.23;1.17;;;24.60;55.50;;;;;;5051001;28;20028;-38
2021/06/04 00:07:49;;;;;;;1.30;1.30;;;24.60;55.50;;;;;;5052097;28;20581;-30
2021/06/04 00:10:19;;;;;;;1.20;1.20;;;24.60;55.50;;;;;;5050819;28;20071;-34
2021/06/04 00:12:44;;;;;;;1.65;1.52;;;24.50;55.40;;;;;;5051473;28;20025;-37
2021/06/04 00:15:15;;;;;;;1.65;1.55;;;24.50;55.50;;;;;;5053191;28;20450;-29
2021/06/04 00:17:43;;;;;;;1.55;1.45;;;24.60;55.40;;;;;;5053183;28;20495;-32
2021/06/04 00:20:19;;;;;;;1.52;1.42;;;24.60;55.50;;;;;;5051575;28;20036;-34
2021/06/04 00:22:44;;;;;;;1.20;1.20;;;24.60;55.60;;;;;;5044057;28;20048;-33
2021/06/04 00:25:10;;;;;;;1.52;1.42;;;24.60;55.50;;;;;;5050386;28;20127;-29
2021/06/04 00:27:36;;;;;;;1.40;1.30;;;24.60;55.50;;;;;;5051620;28;20033;-33
2021/06/04 00:30:03;;;;;;;1.60;1.50;;;24.60;55.50;;;;;;5051530;28;20403;-31
2021/06/04 00:32:29;;;;;;;1.33;1.30;;;24.50;55.70;;;;;;5033732;28;20029;-33
2021/06/04 00:34:54;;;;;;;1.15;1.10;;;24.50;55.60;;;;;;5051499;28;20163;-30
2021/06/04 00:37:20;;;;;;;1.05;1.02;;;24.50;55.80;;;;;;5050563;28;20407;-31
2021/06/04 00:39:46;;;;;;;1.50;1.40;;;24.50;55.80;;;;;;5052564;28;20056;-30
2021/06/04 00:42:20;;;;;;;1.10;1.10;;;24.60;55.60;;;;;;5051182;28;20036;-34
2021/06/04 00:44:46;;;;;;;1.45;1.35;;;24.50;55.60;;;;;;5050973;28;20025;-35
2021/06/04 00:47:12;;;;;;;2.17;1.20;;;24.50;55.60;;;;;;5039928;28;20100;-29
2021/06/04 00:49:37;;;;;;;1.45;1.35;;;24.50;55.70;;;;;;5051786;28;20053;-32
2021/06/04 00:52:10;;;;;;;2.25;1.10;;;24.50;55.60;;;;;;5050413;28;20037;-31
2021/06/04 00:54:36;;;;;;;1.02;1.02;;;24.50;55.70;;;;;;5051201;28;20386;-35
2021/06/04 00:57:02;;;;;;;0.90;0.90;;;24.50;55.60;;;;;;5033389;28;20028;-29
2021/06/04 00:59:31;;;;;;;1.20;1.10;;;24.50;55.70;;;;;;5052079;28;20398;-31
2021/06/04 01:01:57;;;;;;;1.00;1.00;;;24.50;55.90;;;;;;5050604;28;20075;-31
2021/06/04 01:04:24;;;;;;;1.10;1.10;;;24.40;55.80;;;;;;5050764;28;20036;-30
2021/06/04 01:06:52;;;;;;;1.20;1.20;;;24.40;55.80;;;;;;5050543;28;20079;-30
2021/06/04 01:09:33;;;;;;;2.22;1.20;;;24.40;55.60;;;;;;5050880;28;20436;-32
2021/06/04 01:12:23;;;;;;;1.10;1.10;;;24.40;55.80;;;;;;5049887;28;20040;-32
2021/06/04 01:15:07;;;;;;;1.05;1.05;;;24.50;55.80;;;;;;5050378;28;20033;-30
2021/06/04 01:17:50;;;;;;;1.10;1.10;;;24.50;55.80;;;;;;5051354;28;20047;-30
2021/06/04 01:20:24;;;;;;;1.40;1.40;;;24.50;55.80;;;;;;5033235;28;20108;-28
2021/06/04 01:23:35;;;;;;;1.13;1.13;;;24.40;55.90;;;;;;5033627;28;20082;-35
2021/06/04 01:26:02;;;;;;;1.38;1.27;;;24.40;55.80;;;;;;4970158;28;20133;-30
2021/06/04 01:28:36;;;;;;;1.20;1.10;;;24.40;55.90;;;;;;4969943;28;20029;-29
2021/06/04 01:31:01;;;;;;;1.90;1.17;;;24.50;55.90;;;;;;4968777;28;20046;-31
2021/06/04 01:33:31;;;;;;;1.10;1.10;;;24.50;55.90;;;;;;4968766;28;20386;-32
2021/06/04 01:35:58;;;;;;;1.23;1.23;;;24.40;55.80;;;;;;4966685;28;20047;-31
2021/06/04 01:38:29;;;;;;;1.42;1.33;;;24.50;55.80;;;;;;4968394;28;20032;-33
2021/06/04 01:41:00;;;;;;;1.30;1.00;;;24.40;55.80;;;;;;4965715;28;20038;-29
2021/06/04 01:43:30;;;;;;;0.80;0.80;;;24.40;55.80;;;;;;4971234;28;20061;-37
2021/06/04 01:45:59;;;;;;;1.20;1.10;;;24.40;55.80;;;;;;4972046;28;20124;-28
2021/06/04 01:48:27;;;;;;;0.93;0.90;;;24.40;55.70;;;;;;4973479;28;20116;-40
2021/06/04 01:51:01;;;;;;;1.00;1.00;;;24.40;55.80;;;;;;4973114;28;20043;-34
2021/06/04 01:53:31;;;;;;;;;;;24.40;55.80;;;;;;4979504;28;20034;-29
2021/06/04 01:56:18;;;;;;;0.95;0.95;;;24.40;55.70;;;;;;4969217;28;20332;-33
2021/06/04 01:58:54;;;;;;;1.60;1.13;;;24.40;55.60;;;;;;4974969;28;20092;-30
2021/06/04 02:01:26;;;;;;;1.00;0.90;;;24.40;55.70;;;;;;4979879;28;20146;-36
2021/06/04 02:03:52;;;;;;;0.70;0.70;;;24.40;55.90;;;;;;5053201;28;20029;-29
2021/06/04 02:06:17;;;;;;;0.85;0.80;;;24.40;55.90;;;;;;5054097;28;20530;-36
2021/06/04 02:08:49;;;;;;;0.90;0.90;;;24.40;56.00;;;;;;5053949;28;20128;-29
2021/06/04 02:11:20;;;;;;;0.90;0.90;;;24.40;55.90;;;;;;5035578;28;20503;-37
2021/06/04 02:13:47;;;;;;;0.95;0.93;;;24.40;55.90;;;;;;5053853;28;20046;-30
2021/06/04 02:16:45;;;;;;;1.42;1.05;;;24.40;56.50;;;;;;5035457;28;20032;-32
2021/06/04 02:19:40;;;;;;;1.50;0.85;;;24.40;55.80;;;;;;5050895;28;20017;-31
2021/06/04 02:22:18;;;;;;;2.55;1.00;;;24.30;55.90;;;;;;5037504;28;20128;-33
2021/06/04 02:24:54;;;;;;;1.13;1.13;;;24.40;55.90;;;;;;5037800;28;20043;-30
2021/06/04 02:27:36;;;;;;;1.20;1.10;;;24.40;55.90;;;;;;5037134;28;20031;-28
2021/06/04 02:30:12;;;;;;;0.70;0.70;;;24.30;56.50;;;;;;5037511;28;20037;-30
2021/06/04 02:32:52;;;;;;;0.80;0.80;;;24.30;55.90;;;;;;5036112;28;20560;-31
2021/06/04 02:35:24;;;;;;;0.80;0.80;;;24.30;55.90;;;;;;5030709;28;20021;-32
2021/06/04 02:38:00;;;;;;;0.73;0.73;;;24.30;55.80;;;;;;5037146;28;20020;-30
2021/06/04 02:40:35;;;;;;;0.70;0.70;;;24.30;56.00;;;;;;5034859;28;20017;-30
2021/06/04 02:43:19;;;;;;;1.02;0.95;;;24.30;55.80;;;;;;5035682;28;20025;-30
2021/06/04 02:45:51;;;;;;;0.80;0.80;;;24.30;55.70;;;;;;5032892;28;20033;-32
2021/06/04 02:48:19;;;;;;;0.70;0.70;;;24.40;55.90;;;;;;5033030;28;20029;-30
2021/06/04 02:50:48;;;;;;;0.70;0.70;;;24.30;55.80;;;;;;5053244;28;20155;-31
2021/06/04 02:53:39;;;;;;;0.90;0.75;;;24.30;55.90;;;;;;5053431;28;20021;-31
2021/06/04 02:56:17;;;;;;;0.77;0.77;;;24.30;55.80;;;;;;5052771;28;20025;-34
2021/06/04 02:58:49;;;;;;;0.80;0.80;;;24.30;55.80;;;;;;5053434;28;20023;-31
2021/06/04 03:01:15;;;;;;;0.73;0.73;;;24.30;55.80;;;;;;5034748;28;20159;-29
2021/06/04 03:03:43;;;;;;;0.70;0.70;;;24.30;55.80;;;;;;5051619;28;20104;-31
2021/06/04 03:06:08;;;;;;;0.70;0.70;;;24.30;55.90;;;;;;5051413;28;20040;-31
2021/06/04 03:08:35;;;;;;;0.80;0.80;;;24.30;55.80;;;;;;5052178;28;20033;-27
2021/06/04 03:11:02;;;;;;;0.77;0.77;;;24.30;55.80;;;;;;5053692;28;20037;-29
2021/06/04 03:13:30;;;;;;;0.60;0.60;;;24.30;55.80;;;;;;5052968;28;20143;-34
2021/06/04 03:16:01;;;;;;;0.75;0.75;;;24.30;55.90;;;;;;5051469;28;20431;-32
2021/06/04 03:18:34;;;;;;;0.60;0.60;;;24.30;55.80;;;;;;5052799;28;20025;-32
2021/06/04 03:21:00;;;;;;;0.73;0.68;;;24.30;55.70;;;;;;5047563;28;20040;-30
2021/06/04 03:23:35;;;;;;;0.70;0.70;;;24.30;55.80;;;;;;5052060;28;20483;-30
2021/06/04 03:26:01;;;;;;;0.60;0.60;;;24.30;55.70;;;;;;5052447;28;20419;-33
2021/06/04 03:28:27;;;;;;;1.48;0.70;;;24.30;55.80;;;;;;5051658;28;20028;-28
2021/06/04 03:30:52;;;;;;;0.65;0.65;;;24.30;55.70;;;;;;5052416;28;20572;-30
2021/06/04 03:33:21;;;;;;;0.73;0.70;;;24.30;55.80;;;;;;5017500;28;20024;-30
2021/06/04 03:35:47;;;;;;;0.75;0.75;;;24.30;55.80;;;;;;5034687;28;20029;-31
2021/06/04 03:38:14;;;;;;;0.60;0.60;;;24.30;55.80;;;;;;5034165;28;20032;-30
2021/06/04 03:40:40;;;;;;;0.52;0.50;;;24.30;55.90;;;;;;5034660;28;20620;-28
2021/06/04 03:43:07;;;;;;;1.15;0.60;;;24.30;55.80;;;;;;5033830;28;20021;-31
2021/06/04 03:45:36;;;;;;;0.60;0.60;;;24.30;55.90;;;;;;5052124;28;20029;-30
2021/06/04 03:48:01;;;;;;;0.80;0.70;;;24.30;55.80;;;;;;5035009;28;20017;-28
2021/06/04 03:50:27;;;;;;;0.70;0.70;;;24.30;56.50;;;;;;5051009;28;20564;-28
2021/06/04 03:52:53;;;;;;;0.50;0.50;;;24.30;55.80;;;;;;5053744;28;20027;-32
2021/06/04 03:55:21;;;;;;;1.92;0.60;;;24.30;55.80;;;;;;5050834;28;20056;-39
2021/06/04 03:57:49;;;;;;;0.60;0.60;;;24.30;55.70;;;;;;5034736;28;20373;-32
2021/06/04 04:00:34;;;;;;;0.65;0.65;;;24.30;56.20;;;;;;5051166;28;20763;-33
2021/06/04 04:03:00;;;;;;;0.50;0.50;;;24.30;55.80;;;;;;5052747;28;20025;-31
2021/06/04 04:05:26;;;;;;;0.82;0.70;;;24.30;55.60;;;;;;5052385;28;20083;-31
2021/06/04 04:07:51;;;;;;;0.65;0.50;;;24.30;55.80;;;;;;5034068;28;20057;-31
2021/06/04 04:10:19;;;;;;;0.65;0.65;;;24.30;55.70;;;;;;5050036;28;20425;-31
2021/06/04 04:12:44;;;;;;;0.63;0.63;;;24.30;55.80;;;;;;5052238;28;20029;-33
2021/06/04 04:15:17;;;;;;;0.65;0.65;;;24.30;55.70;;;;;;5050378;28;20033;-29
2021/06/04 04:17:45;;;;;;;0.80;0.50;;;24.30;55.80;;;;;;5050869;28;20051;-31
2021/06/04 04:20:13;;;;;;;0.70;0.70;;;24.30;55.90;;;;;;5030239;28;20032;-29
2021/06/04 04:22:39;;;;;;;0.68;0.63;;;24.30;55.70;;;;;;5052276;28;20032;-28
2021/06/04 04:25:06;;;;;;;0.50;0.50;;;24.30;56.30;;;;;;5048854;28;20049;-30
2021/06/04 04:27:31;;;;;;;0.57;0.57;;;24.20;55.80;;;;;;5055019;28;20516;-34
2021/06/04 04:29:58;;;;;;;0.60;0.57;;;24.30;55.80;;;;;;5052081;28;20037;-32
2021/06/04 04:32:24;;;;;;;0.55;0.55;;;24.30;55.90;;;;;;5052163;28;20032;-33
2021/06/04 04:34:49;;;;;;;0.50;0.50;;;24.20;55.90;;;;;;5051999;28;20029;-34
2021/06/04 04:37:15;;;;;;;0.50;0.50;;;24.20;55.80;;;;;;5052345;28;20041;-32
2021/06/04 04:39:42;;;;;;;0.63;0.45;;;24.30;55.80;;;;;;5036036;28;20017;-32
2021/06/04 04:42:09;;;;;;;0.50;0.50;;;24.30;55.90;;;;;;5034899;28;20418;-35
2021/06/04 04:44:36;;;;;;;0.40;0.40;;;24.30;55.80;;;;;;5048965;28;20597;-33
2021/06/04 04:47:04;;;;;;;0.63;0.57;;;24.30;55.80;;;;;;5049614;28;20039;-29
2021/06/04 04:49:29;;;;;;;0.50;0.50;;;24.20;55.70;;;;;;5032084;28;20029;-33
2021/06/04 04:51:55;;;;;;;0.60;0.60;;;24.30;55.90;;;;;;5031969;28;20044;-31
2021/06/04 04:54:21;;;;;;;0.95;0.70;;;24.30;55.70;;;;;;5050785;28;20028;-34
2021/06/04 04:56:49;;;;;;;0.55;0.55;;;24.20;56.00;;;;;;5057051;28;20175;-32
2021/06/04 04:59:15;;;;;;;0.43;0.43;;;24.20;55.90;;;;;;5049336;28;20511;-31
2021/06/04 05:01:40;;;;;;;0.35;0.35;;;24.20;55.90;;;;;;5055344;28;20024;-36
2021/06/04 05:04:06;;;;;;;0.50;0.50;;;24.20;55.90;;;;;;5064764;28;20025;-31
2021/06/04 05:06:32;;;;;;;0.43;0.43;;;24.20;55.70;;;;;;5052102;28;20033;-30
2021/06/04 05:08:57;;;;;;;0.60;0.60;;;24.20;55.90;;;;;;5050344;28;20115;-33
2021/06/04 05:11:23;;;;;;;1.17;0.57;;;24.10;56.20;;;;;;5050334;28;20057;-31
2021/06/04 05:13:49;;;;;;;0.50;0.50;;;24.00;56.60;;;;;;5051435;28;20021;-32
2021/06/04 05:16:15;;;;;;;1.13;0.50;;;23.90;56.80;;;;;;5031771;28;20096;-31
2021/06/04 05:18:40;;;;;;;0.90;0.50;;;23.90;56.60;;;;;;5035878;28;20419;-33
2021/06/04 05:21:08;;;;;;;0.70;0.70;;;24.00;56.40;;;;;;5054224;28;20025;-32
2021/06/04 05:23:34;;;;;;;2.58;0.70;;;23.70;57.20;;;;;;5054913;28;20029;-33
2021/06/04 05:25:59;;;;;;;5.25;0.80;;;23.70;57.20;;;;;;5056081;28;20103;-31
2021/06/04 05:28:26;;;;;;;3.72;0.73;;;23.60;57.50;;;;;;5054229;28;20662;-33
2021/06/04 05:30:54;;;;;;;1.08;0.90;;;23.50;57.40;;;;;;5053443;28;20033;-32
2021/06/04 05:33:23;;;;;;;1.45;0.98;;;23.60;56.20;;;;;;4701344;28;9999737;-33
2021/06/04 05:35:48;;;;;;;1.33;1.08;;;23.70;54.70;;;;;;5034543;28;20052;-35
2021/06/04 05:38:14;;;;;;;3.67;1.35;;;23.70;53.40;;;;;;5051049;28;20066;-31
2021/06/04 05:40:41;;;;;;;2.78;1.10;;;23.70;53.00;;;;;;5049471;28;20459;-30
2021/06/04 05:43:08;;;;;;;1.73;0.88;;;23.40;53.20;;;;;;5049857;28;20100;-32
2021/06/04 05:45:35;;;;;;;4.22;1.10;;;23.30;53.00;;;;;;5052398;28;20498;-31
2021/06/04 05:48:01;;;;;;;2.05;0.73;;;23.30;52.50;;;;;;5074262;28;20426;-26
2021/06/04 05:50:35;;;;;;;5.30;0.90;;;23.00;53.20;;;;;;5054016;28;20029;-34
2021/06/04 05:53:01;;;;;;;;;;;22.90;54.10;;;;;;5055124;28;20021;-30
2021/06/04 05:55:28;;;;;;;2.67;1.08;;;22.70;54.60;;;;;;5053879;28;19905;-33
2021/06/04 05:57:53;;;;;;;3.70;1.00;;;22.80;54.50;;;;;;5053739;28;20053;-33
2021/06/04 06:00:25;;;;;;;1.80;0.85;;;22.60;55.00;;;;;;5050815;28;20080;-33
2021/06/04 06:02:50;;;;;;;2.08;0.80;;;22.30;55.70;;;;;;5052649;28;20036;-31
2021/06/04 06:05:16;;;;;;;1.85;1.00;;;22.00;56.70;;;;;;5049866;28;20033;-30
2021/06/04 06:07:41;;;;;;;1.95;1.10;;;21.90;57.10;;;;;;5049841;28;20033;-31
2021/06/04 06:10:07;;;;;;;1.10;0.80;;;21.80;57.40;;;;;;5048451;28;20033;-33
2021/06/04 06:12:33;;;;;;;1.60;1.00;;;21.60;57.80;;;;;;5034424;28;20028;-32
2021/06/04 06:14:59;;;;;;;5.10;1.02;;;21.70;57.80;;;;;;5053104;28;20037;-29
2021/06/04 06:17:24;;;;;;;1.98;1.02;;;21.70;57.70;;;;;;5031433;28;20029;-35
2021/06/04 06:19:50;;;;;;;2.67;0.65;;;22.00;57.00;;;;;;5052123;28;20055;-32
2021/06/04 06:22:16;;;;;;;1.10;0.60;;;22.30;56.60;;;;;;5052321;28;20120;-32
2021/06/04 06:24:41;;;;;;;2.08;0.80;;;22.50;56.70;;;;;;5050579;28;20094;-31
2021/06/04 06:27:07;;;;;;;1.60;0.80;;;22.60;55.80;;;;;;5050481;28;20033;-33
2021/06/04 06:29:35;;;;;;;2.10;0.90;;;22.70;55.80;;;;;;5048219;28;20123;-36
2021/06/04 06:32:02;;;;;;;1.27;0.70;;;22.70;55.70;;;;;;5052088;28;20093;-29
2021/06/04 06:34:28;;;;;;;2.30;0.88;;;22.70;55.50;;;;;;5040327;28;20037;-31
2021/06/04 06:36:53;;;;;;;1.05;0.73;;;22.70;55.50;;;;;;5031426;28;20029;-31
2021/06/04 06:39:27;;;;;;;0.93;0.60;;;22.90;55.20;;;;;;5051682;28;20024;-31
2021/06/04 06:41:53;;;;;;;0.98;0.55;;;23.20;54.90;;;;;;5050681;28;20136;-32
2021/06/04 06:44:19;;;;;;;2.03;0.85;;;23.20;54.70;;;;;;5050804;28;20127;-34
2021/06/04 06:46:45;;;;;;;2.30;1.05;;;23.20;54.70;;;;;;5054970;28;20082;-33
2021/06/04 06:49:11;;;;;;;1.77;0.80;;;23.20;54.60;;;;;;5052176;28;20104;-32
2021/06/04 06:51:37;;;;;;;1.77;0.82;;;23.20;54.50;;;;;;5038064;28;20037;-31
2021/06/04 06:54:06;;;;;;;2.50;1.10;;;23.20;54.70;;;;;;5052066;28;20025;-29
2021/06/04 06:56:32;;;;;;;1.30;0.80;;;23.10;54.50;;;;;;5054644;28;20055;-33
2021/06/04 06:58:59;;;;;;;1.70;0.90;;;23.10;54.20;;;;;;5046350;28;20408;-34
2021/06/04 07:01:25;;;;;;;2.30;1.02;;;23.10;54.40;;;;;;5052221;28;20029;-35
2021/06/04 07:03:50;;;;;;;1.00;0.90;;;23.10;53.80;;;;;;5051552;28;20090;-31
2021/06/04 07:06:21;;;;;;;2.33;0.93;;;23.20;54.10;;;;;;5044444;28;20028;-35
2021/06/04 07:08:47;;;;;;;1.40;1.10;;;23.20;53.80;;;;;;5036996;28;20120;-28
2021/06/04 07:11:13;;;;;;;2.92;1.10;;;23.10;53.50;;;;;;5041219;28;20787;-32
2021/06/04 07:13:38;;;;;;;3.08;1.10;;;22.90;54.00;;;;;;5037801;28;20601;-34
2021/06/04 07:16:07;;;;;;;1.38;0.80;;;22.50;54.40;;;;;;5038282;28;20033;-33
2021/06/04 07:18:33;;;;;;;1.35;0.88;;;22.40;54.60;;;;;;5038143;28;20029;-32
2021/06/04 07:20:58;;;;;;;2.15;0.90;;;22.50;54.80;;;;;;5036253;28;20040;-34
2021/06/04 07:23:25;;;;;;;2.13;0.85;;;22.60;54.40;;;;;;5037722;28;20033;-33
2021/06/04 07:25:51;;;;;;;1.58;0.90;;;22.50;54.60;;;;;;5037927;28;20036;-33
2021/06/04 07:28:18;;;;;;;2.08;1.10;;;22.70;54.20;;;;;;5039238;28;20641;-33
2021/06/04 07:30:45;;;;;;;1.45;0.85;;;22.80;54.10;;;;;;5044642;28;20063;-33
2021/06/04 07:33:32;;;;;;;2.28;1.23;;;22.70;54.00;;;;;;5053149;28;20494;-30
2021/06/04 07:35:58;;;;;;;3.72;1.08;;;22.80;54.00;;;;;;5053187;28;20068;-33
2021/06/04 07:38:24;;;;;;;2.78;0.95;;;22.80;54.10;;;;;;5052022;28;20502;-33
2021/06/04 07:40:50;;;;;;;2.75;0.90;;;22.60;54.30;;;;;;5051796;28;20032;-30
2021/06/04 07:43:18;;;;;;;2.33;0.88;;;22.70;54.40;;;;;;5050758;28;20083;-31
2021/06/04 07:45:44;;;;;;;1.35;0.75;;;22.70;54.40;;;;;;5052368;28;20033;-32
2021/06/04 07:48:13;;;;;;;2.03;1.17;;;22.60;54.60;;;;;;5051800;28;20047;-32
2021/06/04 07:50:41;;;;;;;1.83;1.33;;;22.60;54.40;;;;;;5052284;28;20037;-30
2021/06/04 07:53:08;;;;;;;2.00;1.00;;;22.50;54.90;;;;;;5050999;28;20025;-33
2021/06/04 07:55:33;;;;;;;1.60;1.00;;;22.40;55.30;;;;;;5052055;28;20029;-34
2021/06/04 07:57:59;;;;;;;1.00;0.73;;;22.50;55.00;;;;;;5051003;28;20383;-32
2021/06/04 08:00:27;;;;;;;1.77;0.95;;;22.40;55.20;;;;;;5051668;28;20051;-32
2021/06/04 08:02:53;;;;;;;1.33;0.77;;;22.50;55.10;;;;;;5050539;28;20045;-41
2021/06/04 08:05:19;;;;;;;1.67;1.00;;;22.40;55.50;;;;;;5033238;28;20052;-31
2021/06/04 08:07:45;;;;;;;1.67;1.00;;;22.40;55.30;;;;;;5053174;28;20411;-34
2021/06/04 08:10:11;;;;;;;2.03;1.00;;;22.60;55.00;;;;;;5051091;28;20036;-32
2021/06/04 08:12:38;;;;;;;2.05;1.08;;;22.40;55.30;;;;;;5053006;28;20546;-32
2021/06/04 08:15:10;;;;;;;2.33;1.20;;;22.60;55.10;;;;;;5051312;28;20067;-32
2021/06/04 08:17:35;;;;;;;3.97;1.15;;;22.60;55.20;;;;;;5037189;28;20033;-32
2021/06/04 08:20:03;;;;;;;1.92;1.17;;;22.40;55.80;;;;;;5051646;28;20060;-31
2021/06/04 08:22:28;;;;;;;1.42;0.88;;;22.40;55.70;;;;;;5051793;28;20510;-35
2021/06/04 08:24:54;;;;;;;2.28;1.23;;;22.50;55.70;;;;;;5050186;28;20029;-30
2021/06/04 08:27:19;;;;;;;1.60;1.00;;;22.60;55.50;;;;;;5058491;28;20024;-32
2021/06/04 08:29:48;;;;;;;3.60;1.20;;;22.50;55.70;;;;;;5056882;28;20041;-33
2021/06/04 08:32:13;;;;;;;2.25;1.30;;;22.20;56.50;;;;;;5052128;28;20525;-31
2021/06/04 08:34:39;;;;;;;2.63;1.20;;;22.00;56.80;;;;;;5046571;28;20119;-33
2021/06/04 08:37:05;;;;;;;3.08;1.40;;;22.10;56.80;;;;;;5051074;28;20025;-34
2021/06/04 08:39:37;;;;;;;1.48;1.20;;;22.10;56.70;;;;;;5051255;28;20068;-34
2021/06/04 08:42:33;;;;;;;3.20;1.27;;;22.30;56.50;;;;;;5033864;28;20024;-33
2021/06/04 08:45:36;;;;;;;2.70;1.35;;;22.20;56.50;;;;;;5038222;28;20032;-31
2021/06/04 08:48:39;;;;;;;2.97;1.20;;;22.00;57.20;;;;;;4965589;28;20043;-31
2021/06/04 08:51:33;;;;;;;2.40;1.23;;;22.10;56.60;;;;;;4969124;28;20065;-33
2021/06/04 08:54:30;;;;;;;3.90;1.45;;;22.10;56.70;;;;;;4944200;28;20054;-33
2021/06/04 08:57:36;;;;;;;2.28;1.45;;;22.40;56.00;;;;;;4973187;28;20049;-37
2021/06/04 09:00:07;;;;;;;6.32;1.85;;;22.50;55.70;;;;;;4972281;28;20121;-32
2021/06/04 09:02:39;;;;;;;2.05;1.15;;;22.50;55.80;;;;;;4972706;28;20082;-31
2021/06/04 09:05:11;;;;;;;2.45;1.58;;;22.40;56.10;;;;;;4973035;28;20087;-32
2021/06/04 09:07:40;;;;;;;6.13;1.50;;;22.20;56.30;;;;;;4959717;28;20023;-32
2021/06/04 09:10:12;;;;;;;3.03;1.48;;;22.10;56.80;;;;;;4955856;28;20536;-34
2021/06/04 09:13:16;;;;;;;4.75;1.77;;;22.20;56.50;;;;;;4974805;28;20105;-34
2021/06/04 09:15:43;;;;;;;4.90;1.20;;;22.20;56.50;;;;;;4972866;28;20057;-30
2021/06/04 09:18:15;;;;;;;3.85;1.30;;;22.10;56.70;;;;;;4978999;28;20026;-31
2021/06/04 09:20:45;;;;;;;2.10;1.45;;;22.10;56.70;;;;;;4977607;28;20457;-32
2021/06/04 09:23:12;;;;;;;1.80;1.10;;;22.10;56.60;;;;;;4985135;28;20072;-32
2021/06/04 09:25:38;;;;;;;2.55;1.25;;;22.20;56.70;;;;;;5036023;28;20039;-35
2021/06/04 09:28:10;;;;;;;2.72;1.42;;;22.10;56.80;;;;;;5054115;28;20513;-35
2021/06/04 09:30:41;;;;;;;2.88;1.40;;;22.00;57.00;;;;;;5036396;28;20556;-31
2021/06/04 09:33:27;;;;;;;2.83;1.55;;;22.00;57.10;;;;;;5055026;28;20083;-36
2021/06/04 09:36:21;;;;;;;1.90;1.45;;;21.90;57.40;;;;;;5038097;28;20033;-36
2021/06/04 09:38:47;;;;;;;;;;;22.00;57.30;;;;;;5042830;28;20033;-33
2021/06/04 09:41:25;;;;;;;3.38;1.52;;;22.00;57.30;;;;;;5054899;28;20438;-32
2021/06/04 09:44:05;;;;;;;2.80;1.35;;;22.00;57.60;;;;;;5042879;28;20055;-33
2021/06/04 09:46:33;;;;;;;4.35;1.42;;;22.00;57.80;;;;;;5039866;28;20040;-31
2021/06/04 09:48:59;;;;;;;4.32;1.40;;;22.00;57.50;;;;;;5041846;28;20040;-32
2021/06/04 09:51:35;;;;;;;2.97;1.30;;;22.20;57.00;;;;;;5039565;28;20048;-37
2021/06/04 09:54:25;;;;;;;3.53;1.73;;;22.20;56.90;;;;;;5020523;28;20062;-29
2021/06/04 09:57:09;;;;;;;4.18;1.60;;;22.10;56.60;;;;;;5039623;28;20040;-38
2021/06/04 09:59:35;;;;;;;2.45;1.30;;;22.20;56.60;;;;;;5024203;28;20076;-41
2021/06/04 10:02:01;;;;;;;2.85;1.50;;;22.10;56.90;;;;;;5041054;28;20029;-30
2021/06/04 10:04:31;;;;;;;2.78;1.65;;;22.20;56.70;;;;;;5039792;28;20047;-34
2021/06/04 10:06:59;;;;;;;3.08;1.60;;;22.30;56.40;;;;;;5022383;28;20537;-38
2021/06/04 10:09:39;;;;;;;4.75;1.70;;;22.10;56.90;;;;;;5040047;28;20116;-34
2021/06/04 10:12:15;;;;;;;3.65;1.40;;;22.00;57.10;;;;;;5040296;28;20045;-38
2021/06/04 10:20:31;;;;;;;5.05;2.17;;;22.30;56.30;;;;;;4688257;28;10000528;-34
2021/06/04 10:23:36;;;;;;;5.00;1.90;;;22.30;57.10;;;;;;5038419;28;20033;-35
2021/06/04 10:26:22;;;;;;;4.22;2.28;;;22.20;56.60;;;;;;5021585;28;20060;-31
2021/06/04 10:28:53;;;;;;;3.10;1.70;;;22.40;56.20;;;;;;5025118;28;20056;-32
2021/06/04 10:31:19;;;;;;;3.53;1.33;;;22.50;55.80;;;;;;5037153;28;20048;-32
2021/06/04 10:33:50;;;;;;;2.60;2.00;;;22.60;55.70;;;;;;5037946;28;20033;-33
2021/06/04 10:36:18;;;;;;;3.63;1.67;;;22.40;56.20;;;;;;5037775;28;20040;-34
2021/06/04 10:38:51;;;;;;;3.05;1.73;;;22.50;55.80;;;;;;5019856;28;21314;-33
2021/06/04 10:41:49;;;;;;;3.20;1.80;;;22.40;55.90;;;;;;5019783;28;20056;-31
2021/06/04 10:44:18;;;;;;;2.80;1.88;;;22.30;56.00;;;;;;5015417;28;20040;-32
2021/06/04 10:46:44;;;;;;;3.08;1.80;;;22.50;55.50;;;;;;5053513;28;20033;-33
2021/06/04 10:49:24;;;;;;;3.38;1.65;;;22.70;55.00;;;;;;5038117;28;20055;-30
2021/06/04 10:51:57;;;;;;;4.32;1.60;;;22.80;55.00;;;;;;5037998;28;20045;-38
2021/06/04 10:54:46;;;;;;;4.40;1.70;;;22.80;55.00;;;;;;5037124;28;20084;-31
2021/06/04 10:57:35;;;;;;;4.50;1.70;;;22.90;54.60;;;;;;5020745;28;20025;-42
2021/06/04 11:00:11;;;;;;;4.05;1.90;;;23.00;54.40;;;;;;5019499;28;20048;-31
2021/06/04 11:02:55;;;;;;;4.18;1.85;;;23.00;54.20;;;;;;5037873;28;20032;-33
2021/06/04 11:05:49;;;;;;;3.95;1.63;;;23.20;54.30;;;;;;5036041;28;20118;-31
2021/06/04 11:08:20;;;;;;;3.67;1.85;;;23.20;54.30;;;;;;5036488;28;20108;-35
2021/06/04 11:11:24;;;;;;;4.53;1.77;;;23.20;54.20;;;;;;5037634;28;20041;-34
2021/06/04 11:13:58;;;;;;;3.65;1.52;;;23.10;54.20;;;;;;5039257;28;20029;-30
2021/06/04 11:16:50;;;;;;;4.75;2.33;;;23.00;54.20;;;;;;5038361;28;20033;-33
2021/06/04 11:19:37;;;;;;;3.10;1.70;;;23.10;54.10;;;;;;5017705;28;20037;-29
2021/06/04 11:22:05;;;;;;;2.88;1.67;;;23.20;53.60;;;;;;5019054;28;20037;-33
2021/06/04 11:24:49;;;;;;;3.78;2.33;;;23.20;53.80;;;;;;5017652;28;20517;-33
2021/06/04 11:27:28;;;;;;;5.07;2.00;;;23.10;54.00;;;;;;5018864;28;20040;-33
2021/06/04 11:29:54;;;;;;;5.10;2.40;;;23.30;53.90;;;;;;5004504;28;20517;-36
2021/06/04 11:32:20;;;;;;;4.88;2.03;;;23.20;53.90;;;;;;4672184;28;10000671;-35
2021/06/04 11:35:09;;;;;;;3.42;2.15;;;23.10;53.80;;;;;;5037089;28;20077;-30
2021/06/04 11:37:57;;;;;;;3.85;2.10;;;23.10;53.80;;;;;;5038560;28;20032;-32
2021/06/04 11:40:44;;;;;;;3.13;2.00;;;23.10;53.70;;;;;;5038030;28;20036;-30
2021/06/04 11:43:13;;;;;;;3.63;2.05;;;23.20;53.70;;;;;;5006369;28;20041;-29
2021/06/04 11:45:39;;;;;;;4.30;1.77;;;23.10;54.00;;;;;;5038931;28;20035;-33
2021/06/04 11:48:26;;;;;;;5.30;1.92;;;23.20;53.80;;;;;;5036199;28;20029;-34
2021/06/04 11:51:17;;;;;;;5.15;2.00;;;23.20;53.90;;;;;;5036094;28;20049;-34
2021/06/04 11:53:47;;;;;;;3.92;1.90;;;23.10;53.70;;;;;;5036971;28;20048;-46
2021/06/04 11:56:40;;;;;;;4.30;1.67;;;23.20;54.30;;;;;;5020756;28;20442;-40
2021/06/04 11:59:07;;;;;;;5.07;1.80;;;23.20;54.80;;;;;;5039519;28;20529;-35
2021/06/04 12:01:44;;;;;;;2.75;1.67;;;23.30;55.00;;;;;;5020897;28;20053;-30
2021/06/04 12:04:11;;;;;;;3.67;1.80;;;23.30;53.80;;;;;;5037158;28;20487;-36
2021/06/04 12:06:58;;;;;;;6.72;2.00;;;23.50;53.80;;;;;;5021639;28;20388;-35
2021/06/04 12:09:33;;;;;;;3.22;1.70;;;23.40;53.90;;;;;;5038697;28;20056;-37
2021/06/04 12:12:17;;;;;;;4.53;1.98;;;23.30;53.80;;;;;;5038920;28;20152;-30
2021/06/04 12:14:54;;;;;;;3.75;1.90;;;23.40;53.60;;;;;;5038471;28;20041;-28
2021/06/04 12:17:30;;;;;;;2.50;1.60;;;23.40;53.90;;;;;;5021605;28;20468;-34
2021/06/04 12:20:27;;;;;;;4.13;1.58;;;23.30;53.70;;;;;;5020786;28;20033;-29
2021/06/04 12:22:57;;;;;;;4.43;1.45;;;23.10;53.40;;;;;;5038934;28;20040;-31
2021/06/04 12:25:40;;;;;;;3.58;1.65;;;23.20;53.50;;;;;;5038624;28;20067;-31
2021/06/04 12:28:33;;;;;;;4.10;1.43;;;23.30;53.70;;;;;;5037665;28;20048;-30
2021/06/04 12:31:02;;;;;;;5.50;1.42;;;23.20;54.00;;;;;;5037298;28;20299;-33
2021/06/04 12:33:55;;;;;;;12.65;1.77;;;23.40;53.90;;;;;;5036759;28;20063;-32
2021/06/04 12:36:30;;;;;;;4.53;1.40;;;23.60;53.10;;;;;;5027870;28;20048;-30
2021/06/04 12:39:20;;;;;;;3.03;1.75;;;23.50;52.90;;;;;;5037387;28;20048;-31
2021/06/04 12:41:47;;;;;;;8.38;1.50;;;23.60;52.50;;;;;;5037298;28;20537;-30
2021/06/04 12:44:13;;;;;;;3.22;1.75;;;23.40;53.10;;;;;;5037389;28;20098;-28
2021/06/04 12:46:39;;;;;;;2.97;1.60;;;23.50;52.80;;;;;;5037453;28;21241;-28
2021/06/04 12:49:12;;;;;;;4.45;1.50;;;23.50;52.90;;;;;;5019365;28;20033;-34
2021/06/04 12:51:44;;;;;;;3.57;1.70;;;23.30;53.00;;;;;;5037827;28;20041;-31
2021/06/04 12:54:12;;;;;;;2.85;1.45;;;23.30;52.90;;;;;;5018431;28;20063;-38
2021/06/04 12:56:52;;;;;;;3.17;1.63;;;23.50;52.20;;;;;;5037166;28;20040;-29
2021/06/04 12:59:24;;;;;;;2.47;1.35;;;23.60;52.20;;;;;;5037568;28;20029;-31
2021/06/04 13:01:54;;;;;;;4.18;1.30;;;23.60;52.10;;;;;;5037420;28;20033;-36
2021/06/04 13:04:24;;;;;;;2.83;1.50;;;23.60;52.60;;;;;;5037038;28;20965;-32
2021/06/04 13:06:52;;;;;;;4.15;1.77;;;23.40;53.10;;;;;;5003746;28;20037;-33
2021/06/04 13:09:34;;;;;;;3.95;1.33;;;23.50;52.80;;;;;;5018946;28;21448;-36
2021/06/04 13:12:04;;;;;;;2.88;1.33;;;23.50;52.50;;;;;;5035731;28;20069;-38
2021/06/04 13:14:40;;;;;;;1.58;1.10;;;23.70;52.30;;;;;;5036815;28;20029;-32
2021/06/04 13:17:15;;;;;;;2.28;1.10;;;23.80;52.10;;;;;;5037263;28;20039;-39